Station: Mackay  

  Atmospheric Gas Attenuation - ITU Rec 676-11   ----------------- dB/100km -----------------
Date Time Temp RH % AH g/m3 Dew Point Wind Direction Speed kph Gust kph Barometer mB Rainfall Since 9am 24GHz 47GHz 76GHz 122GHz 134GHz 241GHz
09/05 07:50 16 55 7.49 7 13 15 1020.1 0 17.1 23.8 34.8 90.9 82.2 282.0
09/05 07:40 15.5 57 7.53 7 13 15 1020.1 0 17.2 24.0 35.1 91.9 83.2 285.5
09/05 07:30 15.1 56 7.22 6.4 13 17 1020 0 16.6 23.6 34.1 89.2 79.8 273.3
09/05 07:20 14.7 57 7.18 6.3 15 17 1019.9 0 16.5 23.7 34.1 89.3 79.7 272.9
09/05 07:10 14.3 60 7.37 6.6 13 15 1019.8 0 16.9 24.1 35.0 91.6 82.5 282.6
09/05 07:00 14 59 7.12 6.1 15 17 1019.7 0 16.4 23.7 34.2 89.4 79.6 272.7
09/05 06:50 13.6 61 7.18 6.2 15 17 1019.5 0 16.6 23.9 34.6 90.5 80.8 276.6
09/05 06:40 13.6 61 7.18 6.2 15 17 1019.4 0 16.6 23.9 34.6 90.4 80.8 276.6
09/05 06:30 13.6 59 6.94 5.7 13 20 1019.3 0 16.1 23.6 33.7 88.0 77.7 266.0
09/05 06:20 13.5 60 7.02 5.9 11 15 1019.2 0 16.2 23.7 34.0 88.9 78.8 269.9
09/05 06:10 13.8 60 7.15 6.2 15 19 1019.1 0 16.5 23.8 34.4 89.9 80.2 274.5
09/05 05:50 13.8 62 7.39 6.7 15 17 1018.8 0 17.0 24.2 35.3 92.3 83.2 285.1
09/05 05:40 13.9 61 7.31 6.5 13 13 1018.7 0 16.8 24.0 34.9 91.4 82.0 281.1
09/05 05:30 14.1 60 7.28 6.5 13 17 1018.7 0 16.8 23.9 34.7 90.8 81.5 279.1
09/05 05:20 14.3 59 7.25 6.4 15 17 1018.7 0 16.7 23.8 34.5 90.3 80.9 277.1
09/05 05:10 14.7 55 6.92 5.8 13 15 1018.6 0 16.0 23.2 33.1 86.5 76.4 261.4
09/05 05:00 15 53 6.8 5.5 15 22 1018.5 0 15.7 23.0 32.5 85.0 74.6 255.2
09/05 04:50 15.5 52 6.87 5.7 13 17 1018.3 0 15.8 22.9 32.6 85.2 75.0 256.6
09/05 04:40 16.1 49 6.72 5.4 17 20 1018.2 0 15.5 22.6 31.8 83.1 72.6 248.4
09/05 04:30 17.1 44 6.4 4.8 17 32 1017.9 0 14.8 21.8 30.3 79.0 67.9 232.1
09/05 04:20 17.7 38 5.73 3.2 20 30 1018 0 13.3 20.8 27.7 72.2 59.8 203.5
09/05 04:10 17.5 37 5.52 2.7 24 30 1018 0 12.9 20.5 27.1 70.5 57.6 195.7
09/05 04:00 17.3 43 6.33 4.6 17 30 1017.8 0 14.6 21.7 29.9 78.1 66.9 228.6
09/05 03:50 17.8 40 6.07 4 15 19 1017.9 0 14.1 21.2 28.9 75.2 63.6 216.8
09/05 03:40 17.9 38 5.8 3.4 22 30 1017.9 0 13.5 20.8 27.9 72.7 60.4 205.8
09/05 03:30 18 36 5.53 2.7 22 33 1017.7 0 12.9 20.4 27.0 70.1 57.3 194.8
09/05 03:20 17.8 37 5.62 2.9 24 33 1017.7 0 13.1 20.6 27.3 71.1 58.5 198.9
09/05 03:10 17.8 39 5.92 3.7 19 24 1017.9 0 13.7 21.0 28.3 73.8 61.9 210.8
09/05 03:00 17.9 39 5.95 3.8 26 35 1017.9 0 13.8 21.0 28.4 74.0 62.1 211.7
09/05 02:50 18 37 5.68 3.1 20 30 1017.9 0 13.2 20.6 27.5 71.5 59.0 200.8
09/05 02:40 18 38 5.84 3.5 22 26 1018 0 13.6 20.9 28.0 72.9 60.8 207.1
09/05 02:30 17.9 39 5.95 3.8 19 26 1018.1 0 13.8 21.0 28.4 74.0 62.1 211.7
09/05 02:20 18.3 37 5.78 3.4 26 35 1018.1 0 13.4 20.7 27.7 72.1 59.9 204.0
09/05 02:10 18.2 37 5.75 3.3 24 32 1018.2 0 13.4 20.7 27.6 72.0 59.7 203.1
09/05 02:00 18.4 37 5.82 3.5 22 35 1018.2 0 13.5 20.7 27.8 72.4 60.3 205.3
09/05 01:50 18.4 36 5.66 3.1 28 39 1018.4 0 13.2 20.5 27.3 71.0 58.5 199.1
09/05 01:40 18.5 35 5.54 2.8 26 33 1018.4 0 12.9 20.3 26.8 69.8 57.1 194.2
09/05 01:30 18.6 35 5.57 2.9 22 35 1018.4 0 13.0 20.4 26.9 70.0 57.4 195.1
09/05 01:20 18.6 38 6.05 4 19 20 1018.4 0 14.0 21.0 28.5 74.4 62.7 214.0
09/05 01:10 18.9 36 5.83 3.5 24 30 1018.4 0 13.5 20.6 27.7 72.1 60.0 204.5
09/05 01:00 19 38 6.19 4.4 24 37 1018.5 0 14.3 21.1 28.9 75.3 64.0 218.5
09/05 00:50 18.9 39 6.32 4.7 24 32 1018.5 0 14.5 21.3 29.4 76.6 65.6 223.9
09/05 00:40 19 39 6.35 4.7 22 32 1018.6 0 14.6 21.4 29.4 76.7 65.8 224.9
09/05 00:30 19.1 37 6.06 4.1 24 37 1018.7 0 14.0 20.9 28.4 74.0 62.5 213.1
09/05 00:20 19.3 38 6.3 4.6 22 28 1018.7 0 14.5 21.2 29.2 76.0 65.0 222.1
09/05 00:10 19.3 39 6.47 5 20 26 1018.7 0 14.8 21.5 29.7 77.6 66.9 228.8
09/05 00:00 19.4 36 6.01 4 22 37 1018.9 0 13.9 20.8 28.1 73.3 61.7 210.4
08/05 23:50 19.4 40 6.67 5.5 20 30 1018.9 0 15.3 21.7 30.4 79.3 69.2 236.6
08/05 23:40 19.7 37 6.28 4.6 24 33 1018.9 0 14.4 21.1 29.0 75.5 64.5 220.2
08/05 23:30 19.5 41 6.88 5.9 20 33 1018.9 0 15.7 22.0 31.1 81.2 71.5 244.8
08/05 23:20 19.5 41 6.88 5.9 22 28 1018.9 0 15.7 22.0 31.1 81.2 71.5 244.8
08/05 23:10 19.7 38 6.45 5 24 33 1018.9 0 14.8 21.3 29.5 77.0 66.4 227.0
08/05 23:00 19.6 41 6.92 6 19 30 1019 0 15.8 22.0 31.2 81.5 71.9 246.1
08/05 22:50 19.5 40 6.71 5.6 20 26 1019 0 15.3 21.8 30.5 79.6 69.5 237.9
08/05 22:40 19.7 40 6.79 5.7 20 26 1019 0 15.5 21.8 30.7 80.2 70.3 240.6
08/05 22:30 19.1 47 7.7 7.5 19 28 1019.1 0 17.4 23.3 34.2 89.4 81.5 279.8
08/05 22:20 18.3 58 9.07 9.9 19 24 1019.2 0 20.4 25.6 39.7 104.1 99.3 342.1
08/05 22:10 18.4 59 9.28 10.3 15 17 1019.2 0 20.8 25.9 40.4 106.1 101.8 351.0
08/05 22:00 18.4 58 9.12 10 15 20 1019.3 0 20.5 25.6 39.8 104.5 99.8 343.9
08/05 21:50 18.9 56 9.07 9.9 17 19 1019.3 0 20.3 25.4 39.4 103.3 98.5 339.5
08/05 21:40 19.3 52 8.62 9.2 15 19 1019.3 0 19.4 24.6 37.5 98.3 92.4 318.3
08/05 21:30 19.1 53 8.69 9.3 17 26 1019.3 0 19.5 24.8 37.8 99.2 93.5 322.1
08/05 21:20 18.7 60 9.61 10.8 17 22 1019.4 0 21.5 26.3 41.6 109.2 105.7 364.5
08/05 21:10 18.7 60 9.61 10.8 13 15 1019.5 0 21.5 26.3 41.6 109.2 105.7 364.5
08/05 21:00 19.1 59 9.67 10.9 15 17 1019.4 0 21.6 26.3 41.6 109.2 105.9 365.3
08/05 20:50 19.4 59 9.84 11.2 15 17 1019.3 0 21.9 26.5 42.1 110.6 107.6 371.5
08/05 20:40 19.7 62 10.53 12.2 15 17 1019.2 0 23.4 27.5 44.6 117.4 116.1 401.3
08/05 20:30 20.1 64 11.12 13.1 15 20 1019.1 0 24.6 28.3 46.8 123.1 123.3 426.3
08/05 20:20 20.8 62 11.23 13.3 13 17 1018.9 0 24.8 28.2 46.8 123.1 123.6 427.5
08/05 20:10 21.7 57 10.87 12.8 17 20 1018.7 0 24.0 27.4 44.8 117.9 117.5 406.3
08/05 20:00 22.3 50 9.87 11.4 20 30 1018.7 0 21.8 25.6 40.7 106.9 104.1 359.4
08/05 19:50 22.3 48 9.48 10.8 20 28 1018.6 0 21.0 25.1 39.2 103.0 99.3 342.6
08/05 19:40 22.3 49 9.67 11.1 17 24 1018.5 0 21.4 25.3 39.9 104.9 101.6 350.7
08/05 19:30 22.2 50 9.82 11.3 19 30 1018.4 0 21.7 25.6 40.5 106.5 103.6 357.6
08/05 19:20 22.2 47 9.23 10.4 17 24 1018.2 0 20.5 24.7 38.3 100.6 96.3 332.3
08/05 19:10 22.4 48 9.53 10.9 19 26 1018.1 0 21.1 25.1 39.3 103.3 99.7 344.2
08/05 19:00 22.3 49 9.67 11.1 17 24 1017.9 0 21.4 25.3 39.9 104.8 101.5 350.5
08/05 18:50 22.2 48 9.42 10.7 19 26 1018 0 20.9 25.0 39.0 102.5 98.6 340.3
08/05 18:40 22.4 49 9.73 11.2 17 20 1017.7 0 21.5 25.4 40.1 105.2 102.1 352.6
08/05 18:30 22.3 47 9.28 10.5 17 26 1017.5 0 20.6 24.7 38.4 100.9 96.8 333.8
08/05 18:20 22.3 51 10.07 11.7 17 22 1017.3 0 22.3 25.9 41.4 108.7 106.4 367.6
08/05 18:10 22.2 50 9.82 11.3 22 28 1017.1 0 21.7 25.5 40.5 106.3 103.5 357.2
08/05 18:00 22.2 52 10.21 11.9 19 28 1017.1 0 22.6 26.1 42.0 110.3 108.3 374.1
08/05 17:50 22.2 51 10.01 11.6 22 28 1016.9 0 22.1 25.8 41.2 108.2 105.8 365.4
08/05 17:40 22.1 55 10.74 12.6 19 20 1016.8 0 23.7 27.0 44.0 115.8 115.1 397.9
08/05 17:30 22.1 52 10.15 11.8 19 28 1016.7 0 22.4 26.1 41.8 109.8 107.6 371.9
08/05 17:20 22.2 53 10.4 12.2 19 28 1016.6 0 23.0 26.4 42.7 112.1 110.6 382.3
08/05 17:10 22.2 51 10.01 11.6 22 30 1016.5 0 22.1 25.8 41.2 108.2 105.7 365.2
08/05 17:00 22.3 53 10.46 12.3 17 30 1016.3 0 23.1 26.5 42.8 112.6 111.2 384.4
08/05 16:50 22.5 52 10.39 12.2 20 28 1016.3 0 22.9 26.3 42.4 111.6 110.0 380.3
08/05 16:40 22.6 55 11.05 13.1 20 26 1016.1 0 24.3 27.3 44.9 118.2 118.2 408.9
08/05 16:30 22.7 53 10.71 12.6 17 30 1016.1 0 23.6 26.7 43.6 114.6 113.8 393.3
08/05 16:20 22.8 54 10.97 13 20 28 1016 0 24.1 27.1 44.5 117.1 116.9 404.3
08/05 16:10 22.9 54 11.04 13.1 20 28 1015.9 0 24.3 27.2 44.7 117.6 117.6 406.9
08/05 16:00 23 56 11.51 13.8 19 28 1015.9 0 25.3 27.9 46.5 122.4 123.5 427.3
08/05 15:50 23 53 10.89 12.9 19 24 1015.8 0 24.0 26.9 44.1 115.9 115.6 399.7
08/05 15:40 23.3 53 11.08 13.2 19 26 1015.9 0 24.3 27.1 44.6 117.4 117.5 406.6
08/05 15:30 23.2 54 11.23 13.4 15 26 1015.9 0 24.7 27.4 45.3 119.1 119.6 413.8
08/05 15:20 23.3 53 11.08 13.2 15 20 1015.8 0 24.3 27.1 44.6 117.4 117.5 406.6
08/05 15:10 23.2 55 11.43 13.7 19 26 1015.8 0 25.1 27.7 46.0 121.2 122.1 422.6

Last Refresh: 09-May-2026 07:34:54

Bureau of Meteorology